createdAt,value
2022-08-27T00:01:22.145Z,10.77
2022-08-27T00:03:50.141Z,10.83
2022-08-27T00:06:19.240Z,9.63
2022-08-27T00:08:47.881Z,9.50
2022-08-27T00:11:17.253Z,11.10
2022-08-27T00:13:44.870Z,10.10
2022-08-27T00:16:13.829Z,10.00
2022-08-27T00:18:42.231Z,10.27
2022-08-27T00:21:09.365Z,11.30
2022-08-27T00:23:36.716Z,10.50
2022-08-27T00:26:04.522Z,9.93
2022-08-27T00:28:32.403Z,10.47
2022-08-27T00:31:00.014Z,11.30
2022-08-27T00:33:30.591Z,9.60
2022-08-27T00:35:57.866Z,9.87
2022-08-27T00:38:25.460Z,9.33
2022-08-27T00:40:53.400Z,10.80
2022-08-27T00:43:24.119Z,9.90
2022-08-27T00:45:54.363Z,10.80
2022-08-27T00:48:25.248Z,10.20
2022-08-27T00:50:54.364Z,10.00
2022-08-27T00:53:24.371Z,9.83
2022-08-27T00:55:59.980Z,10.27
2022-08-27T00:58:33.417Z,9.27
2022-08-27T01:01:01.546Z,10.37
2022-08-27T01:03:28.941Z,9.07
2022-08-27T01:05:58.985Z,9.23
2022-08-27T01:08:29.441Z,8.47
2022-08-27T01:10:58.465Z,8.63
2022-08-27T01:13:59.288Z,8.60
2022-08-27T01:16:22.145Z,7.87
2022-08-27T01:18:51.109Z,8.50
2022-08-27T01:21:34.299Z,7.67
2022-08-27T01:24:31.212Z,6.90
2022-08-27T01:27:00.117Z,7.33
2022-08-27T01:29:28.411Z,7.27
2022-08-27T01:32:06.841Z,7.87
2022-08-27T01:34:34.277Z,8.50
2022-08-27T01:37:01.568Z,9.10
2022-08-27T01:39:28.836Z,7.83
2022-08-27T01:42:22.406Z,8.17
2022-08-27T01:44:51.428Z,7.73
2022-08-27T01:47:20.827Z,7.67
2022-08-27T01:49:48.392Z,8.17
2022-08-27T01:52:17.829Z,9.60
2022-08-27T01:54:46.067Z,9.90
2022-08-27T01:57:13.129Z,10.03
2022-08-27T01:59:49.535Z,10.20
2022-08-27T02:02:17.981Z,9.90
2022-08-27T02:04:45.822Z,10.30
2022-08-27T02:07:13.201Z,10.50
2022-08-27T02:09:40.264Z,9.43
2022-08-27T02:12:07.416Z,9.63
2022-08-27T02:14:34.805Z,9.80
2022-08-27T02:17:02.546Z,11.07
2022-08-27T02:19:29.734Z,9.47
2022-08-27T02:22:00.319Z,9.70
2022-08-27T02:24:28.549Z,9.03
2022-08-27T02:26:56.519Z,10.17
2022-08-27T02:29:23.789Z,8.23
2022-08-27T02:31:50.856Z,7.93
2022-08-27T02:34:18.932Z,8.33
2022-08-27T02:36:46.832Z,11.33
2022-08-27T02:39:13.896Z,10.80
2022-08-27T02:41:40.875Z,10.57
2022-08-27T02:44:10.415Z,10.03
2022-08-27T02:46:39.442Z,11.13
2022-08-27T02:49:06.588Z,12.73
2022-08-27T02:51:34.111Z,14.93
2022-08-27T02:54:02.933Z,14.50
2022-08-27T02:56:30.401Z,16.43
2022-08-27T02:58:59.168Z,15.57
2022-08-27T03:01:26.779Z,16.33
2022-08-27T03:03:54.138Z,15.57
2022-08-27T03:06:21.162Z,15.97
2022-08-27T03:08:53.380Z,16.37
2022-08-27T03:11:23.655Z,15.43
2022-08-27T03:13:50.912Z,17.57
2022-08-27T03:16:19.105Z,17.73
2022-08-27T03:18:46.199Z,16.83
2022-08-27T03:21:24.192Z,17.33
2022-08-27T03:23:52.334Z,17.40
2022-08-27T03:26:19.813Z,15.13
2022-08-27T03:28:47.567Z,15.27
2022-08-27T03:31:26.700Z,15.30
2022-08-27T03:34:02.859Z,13.87
2022-08-27T03:36:31.080Z,14.40
2022-08-27T03:38:58.681Z,14.23
2022-08-27T03:41:40.049Z,15.57
2022-08-27T03:44:21.758Z,15.63
2022-08-27T03:46:50.265Z,16.17
2022-08-27T03:49:20.537Z,18.47
2022-08-27T03:51:49.379Z,18.07
2022-08-27T03:54:16.407Z,16.73
2022-08-27T03:56:43.488Z,17.33
2022-08-27T03:59:10.529Z,18.23
2022-08-27T04:01:37.673Z,17.30
2022-08-27T04:04:04.790Z,18.13
2022-08-27T04:06:33.204Z,16.47
2022-08-27T04:09:00.529Z,17.90
2022-08-27T04:11:29.491Z,16.57
2022-08-27T04:13:57.175Z,17.90
2022-08-27T04:16:25.902Z,17.00
2022-08-27T04:18:55.437Z,17.47
2022-08-27T04:21:23.232Z,16.67
2022-08-27T04:23:50.944Z,17.17
2022-08-27T04:26:20.531Z,17.30
2022-08-27T04:28:48.807Z,17.23
2022-08-27T04:31:17.073Z,17.53
2022-08-27T04:33:50.567Z,17.87
2022-08-27T04:36:18.706Z,17.57
2022-08-27T04:38:45.937Z,17.87
2022-08-27T04:41:27.408Z,17.97
2022-08-27T04:43:56.761Z,17.83
2022-08-27T04:46:29.550Z,18.23
2022-08-27T04:49:01.925Z,17.53
2022-08-27T04:51:29.957Z,17.17
2022-08-27T04:54:00.926Z,16.43
2022-08-27T04:56:28.700Z,16.23
2022-08-27T04:58:56.094Z,15.97
2022-08-27T05:01:27.066Z,16.50
2022-08-27T05:03:55.509Z,17.43
2022-08-27T05:06:23.077Z,17.63
2022-08-27T05:08:51.358Z,15.77
2022-08-27T05:11:20.824Z,17.33
2022-08-27T05:13:48.163Z,15.77
2022-08-27T05:16:19.148Z,16.40
2022-08-27T05:18:48.047Z,17.30
2022-08-27T05:21:21.137Z,18.43
2022-08-27T05:23:48.663Z,16.63
2022-08-27T05:26:16.097Z,17.67
2022-08-27T05:28:44.159Z,16.80
2022-08-27T05:31:12.863Z,16.37
2022-08-27T05:33:41.552Z,15.73
2022-08-27T05:36:14.770Z,16.03
2022-08-27T05:38:43.060Z,16.23
2022-08-27T05:41:15.691Z,16.90
2022-08-27T05:43:47.736Z,17.27
2022-08-27T05:46:19.208Z,16.00
2022-08-27T05:48:46.531Z,16.20
2022-08-27T05:51:26.085Z,16.53
2022-08-27T05:54:11.017Z,16.87
2022-08-27T05:56:38.682Z,17.17
2022-08-27T05:59:24.469Z,15.50
2022-08-27T06:01:54.291Z,15.27
2022-08-27T06:04:23.676Z,14.60
2022-08-27T06:06:51.952Z,13.27
2022-08-27T06:09:25.694Z,13.40
2022-08-27T06:11:57.993Z,12.73
2022-08-27T06:14:25.244Z,13.57
2022-08-27T06:16:52.771Z,14.33
2022-08-27T06:19:20.211Z,12.70
2022-08-27T06:22:01.105Z,12.90
2022-08-27T06:24:34.977Z,11.77
2022-08-27T06:27:03.238Z,11.50
2022-08-27T06:29:30.242Z,12.47
2022-08-27T06:31:57.250Z,11.43
2022-08-27T06:34:24.432Z,10.27
2022-08-27T06:36:51.456Z,11.23
2022-08-27T06:39:18.461Z,10.87
2022-08-27T06:41:46.127Z,10.63
2022-08-27T06:44:14.343Z,10.67
2022-08-27T06:46:42.828Z,11.90
2022-08-27T06:49:11.091Z,11.40
2022-08-27T06:51:39.901Z,10.73
2022-08-27T06:54:09.512Z,11.40
2022-08-27T06:56:36.754Z,11.13
2022-08-27T06:59:11.532Z,10.87
2022-08-27T07:01:42.653Z,11.00
2022-08-27T07:04:13.435Z,13.10
2022-08-27T07:06:41.607Z,12.40
2022-08-27T07:09:09.697Z,11.43
2022-08-27T07:11:38.255Z,11.93
2022-08-27T07:14:07.035Z,11.50
2022-08-27T07:16:34.485Z,10.90
2022-08-27T07:19:05.454Z,12.17
2022-08-27T07:21:34.506Z,11.73
2022-08-27T07:24:04.826Z,10.23
2022-08-27T07:26:34.767Z,11.83
2022-08-27T07:29:02.139Z,10.17
2022-08-27T07:31:29.301Z,11.90
2022-08-27T07:33:56.374Z,10.90
2022-08-27T07:36:24.124Z,11.80
2022-08-27T07:38:57.019Z,11.37
2022-08-27T07:41:53.338Z,10.77
2022-08-27T07:44:31.102Z,11.07
2022-08-27T07:47:02.430Z,11.90
2022-08-27T07:49:29.946Z,11.33
2022-08-27T07:51:57.235Z,10.70
2022-08-27T07:54:25.351Z,10.80
2022-08-27T07:56:55.339Z,11.13
2022-08-27T07:59:24.762Z,10.13
2022-08-27T08:01:52.512Z,10.43
2022-08-27T08:04:20.639Z,9.63
2022-08-27T08:06:48.476Z,11.03
2022-08-27T08:09:15.714Z,12.07
2022-08-27T08:11:42.743Z,11.30
2022-08-27T08:14:09.766Z,11.77
2022-08-27T08:16:36.847Z,9.90
2022-08-27T08:19:03.907Z,11.70
2022-08-27T08:21:30.945Z,11.57
2022-08-27T08:23:58.798Z,12.47
2022-08-27T08:26:26.030Z,11.43
2022-08-27T08:28:53.023Z,10.57
2022-08-27T08:31:20.501Z,13.60
2022-08-27T08:33:50.272Z,12.00
2022-08-27T08:36:17.852Z,12.47
2022-08-27T08:38:46.039Z,10.77
2022-08-27T08:41:39.649Z,11.93
2022-08-27T08:44:43.152Z,12.00
2022-08-27T08:47:15.844Z,10.90
2022-08-27T08:49:53.526Z,11.60
2022-08-27T08:52:37.234Z,10.97
2022-08-27T08:55:11.263Z,12.23
2022-08-27T08:57:53.897Z,12.67
2022-08-27T09:00:21.252Z,10.50
2022-08-27T09:02:54.911Z,11.70
2022-08-27T09:05:27.349Z,11.13
2022-08-27T09:08:31.857Z,12.03
2022-08-27T09:11:26.817Z,11.50
2022-08-27T09:13:59.564Z,10.77
2022-08-27T09:16:27.877Z,10.90
2022-08-27T09:18:55.332Z,9.53
2022-08-27T09:21:41.863Z,10.73
2022-08-27T09:24:14.752Z,11.53
2022-08-27T09:26:44.204Z,12.03
2022-08-27T09:29:21.411Z,10.50
2022-08-27T09:32:08.897Z,11.93
2022-08-27T09:34:42.336Z,9.03
2022-08-27T09:37:17.102Z,10.20
2022-08-27T09:39:47.267Z,11.10
2022-08-27T09:42:43.280Z,11.20
2022-08-27T09:45:25.214Z,11.60
2022-08-27T09:48:07.548Z,13.33
2022-08-27T09:50:49.378Z,10.47
2022-08-27T09:53:24.016Z,12.23
2022-08-27T09:55:58.959Z,11.90
2022-08-27T09:58:35.679Z,13.37
2022-08-27T10:01:06.210Z,13.47
2022-08-27T10:03:33.955Z,14.57
2022-08-27T10:06:01.089Z,11.40
2022-08-27T10:08:41.707Z,11.20
2022-08-27T10:11:23.645Z,11.30
2022-08-27T10:13:59.272Z,12.07
2022-08-27T10:16:47.772Z,10.30
2022-08-27T10:19:29.906Z,11.67
2022-08-27T10:22:14.698Z,7.73
2022-08-27T10:25:11.609Z,5.97
2022-08-27T10:28:04.939Z,6.47
2022-08-27T10:30:57.124Z,6.97
2022-08-27T10:33:29.952Z,6.87
2022-08-27T10:36:16.816Z,7.00
2022-08-27T10:38:57.047Z,7.53
2022-08-27T10:41:31.528Z,7.60
2022-08-27T10:44:43.255Z,6.53
2022-08-27T10:47:19.241Z,5.47
2022-08-27T10:50:15.254Z,6.23
2022-08-27T10:52:54.995Z,6.83
2022-08-27T10:55:34.282Z,5.93
2022-08-27T10:58:11.285Z,5.40
2022-08-27T11:01:03.188Z,5.63
2022-08-27T11:03:54.589Z,7.50
2022-08-27T11:06:21.552Z,8.63
2022-08-27T11:08:54.970Z,6.67
2022-08-27T11:14:29.902Z,7.00
2022-08-27T11:17:12.099Z,8.37
2022-08-27T11:20:01.977Z,7.70
2022-08-27T11:22:58.204Z,8.10
2022-08-27T11:25:34.349Z,7.10
2022-08-27T11:28:02.983Z,7.67
2022-08-27T11:30:46.036Z,7.97
2022-08-27T11:33:29.173Z,8.93
2022-08-27T11:36:01.938Z,6.03
2022-08-27T11:38:52.809Z,3.77
2022-08-27T11:41:45.187Z,3.57
2022-08-27T11:44:15.068Z,3.23
2022-08-27T11:46:53.617Z,3.60
2022-08-27T11:49:46.500Z,2.93
2022-08-27T11:52:23.422Z,2.70
2022-08-27T11:54:55.772Z,3.13
2022-08-27T11:57:34.785Z,2.87
2022-08-27T12:00:21.081Z,2.90
2022-08-27T12:03:23.549Z,2.73
2022-08-27T12:05:53.433Z,2.83
2022-08-27T12:08:23.122Z,2.80
2022-08-27T12:11:17.288Z,2.83
2022-08-27T12:13:52.904Z,2.77
2022-08-27T12:16:42.058Z,2.77
2022-08-27T12:19:23.938Z,2.07
2022-08-27T12:22:15.041Z,2.30
2022-08-27T12:24:55.774Z,2.40
2022-08-27T12:27:25.956Z,2.30
2022-08-27T12:30:03.025Z,2.20
2022-08-27T12:32:44.423Z,1.80
2022-08-27T12:35:17.819Z,2.30
2022-08-27T12:37:49.797Z,1.97
2022-08-27T12:40:27.861Z,2.10
2022-08-27T12:43:11.162Z,1.70
2022-08-27T12:45:51.842Z,1.97
2022-08-27T12:48:23.556Z,2.07
2022-08-27T12:50:53.919Z,2.40
2022-08-27T12:53:44.762Z,1.97
2022-08-27T12:56:42.557Z,2.07
2022-08-27T12:59:33.741Z,2.73
2022-08-27T13:02:15.637Z,2.73
2022-08-27T13:04:43.719Z,2.80
2022-08-27T13:07:10.778Z,2.80
2022-08-27T13:09:39.476Z,2.50
2022-08-27T13:12:15.788Z,2.97
2022-08-27T13:14:43.024Z,3.27
2022-08-27T13:17:11.597Z,3.13
2022-08-27T13:20:00.717Z,3.27
2022-08-27T13:22:31.950Z,3.00
2022-08-27T13:25:02.811Z,3.50
2022-08-27T13:27:32.762Z,3.60
2022-08-27T13:30:09.896Z,3.60
2022-08-27T13:32:40.347Z,3.73
2022-08-27T13:35:08.656Z,4.03
2022-08-27T13:37:42.766Z,3.53
2022-08-27T13:40:10.792Z,4.93
2022-08-27T13:42:44.796Z,5.33
2022-08-27T13:45:12.522Z,5.57
2022-08-27T13:47:47.441Z,5.27
2022-08-27T13:50:25.944Z,5.87
2022-08-27T13:53:18.934Z,6.30
2022-08-27T13:55:49.243Z,7.13
2022-08-27T13:58:26.565Z,5.83
2022-08-27T14:00:54.857Z,5.67
2022-08-27T14:03:29.649Z,6.40
2022-08-27T14:05:57.002Z,5.97
2022-08-27T14:08:30.009Z,6.13
2022-08-27T14:11:04.912Z,6.10
2022-08-27T14:13:41.674Z,6.33
2022-08-27T14:16:26.458Z,6.30
2022-08-27T14:19:24.991Z,6.20
2022-08-27T14:21:52.697Z,6.37
2022-08-27T14:24:19.866Z,5.97
2022-08-27T14:26:52.820Z,7.13
2022-08-27T14:29:20.165Z,5.97
2022-08-27T14:31:47.385Z,5.70
2022-08-27T14:34:15.821Z,5.93
2022-08-27T14:36:43.857Z,6.07
2022-08-27T14:39:11.819Z,5.97
2022-08-27T14:41:39.284Z,5.50
2022-08-27T14:44:07.171Z,5.73
2022-08-27T14:46:42.774Z,5.03
2022-08-27T14:49:14.532Z,5.73
2022-08-27T14:51:44.545Z,4.53
2022-08-27T14:54:12.353Z,5.37
2022-08-27T14:56:39.437Z,5.77
2022-08-27T14:59:06.744Z,4.60
2022-08-27T15:01:37.283Z,4.83
2022-08-27T15:04:05.198Z,4.63
2022-08-27T15:06:32.296Z,4.10
2022-08-27T15:09:00.656Z,4.27
2022-08-27T15:11:31.931Z,3.90
2022-08-27T15:14:00.699Z,4.00
2022-08-27T15:16:36.009Z,3.90
2022-08-27T15:19:03.664Z,3.67
2022-08-27T15:21:31.143Z,3.63
2022-08-27T15:24:04.379Z,4.00
2022-08-27T15:26:32.047Z,4.90
2022-08-27T15:29:02.820Z,3.57
2022-08-27T15:31:32.877Z,3.40
2022-08-27T15:33:59.989Z,3.60
2022-08-27T15:36:27.000Z,3.37
2022-08-27T15:38:55.224Z,3.90
2022-08-27T15:41:24.289Z,3.73
2022-08-27T15:43:54.436Z,3.50
2022-08-27T15:46:22.909Z,3.73
2022-08-27T15:48:50.022Z,3.80
2022-08-27T15:51:21.731Z,3.63
2022-08-27T15:53:48.779Z,3.30
2022-08-27T15:56:16.049Z,3.20
2022-08-27T15:58:43.199Z,3.50
2022-08-27T16:01:14.805Z,4.07
2022-08-27T16:03:44.232Z,4.20
2022-08-27T16:06:12.802Z,3.87
2022-08-27T16:08:42.346Z,4.43
2022-08-27T16:11:09.805Z,4.27
2022-08-27T16:13:37.918Z,3.97
2022-08-27T16:16:06.280Z,4.43
2022-08-27T16:18:35.332Z,3.53
2022-08-27T16:21:04.292Z,3.77
2022-08-27T16:23:32.647Z,3.90
2022-08-27T16:26:00.482Z,3.47
2022-08-27T16:28:27.592Z,3.90
2022-08-27T16:30:56.298Z,3.50
2022-08-27T16:33:24.337Z,4.10
2022-08-27T16:35:52.542Z,4.93
2022-08-27T16:38:20.137Z,4.73
2022-08-27T16:40:53.012Z,5.00
2022-08-27T16:43:26.331Z,4.13
2022-08-27T16:45:55.391Z,3.93
2022-08-27T16:48:41.687Z,4.50
2022-08-27T16:51:15.832Z,4.07
2022-08-27T16:53:44.415Z,4.67
2022-08-27T16:56:11.493Z,4.70
2022-08-27T16:58:41.069Z,5.10
2022-08-27T17:01:10.863Z,5.63
2022-08-27T17:04:07.463Z,4.93
2022-08-27T17:06:32.354Z,4.90
2022-08-27T17:08:59.632Z,5.10
2022-08-27T17:11:28.952Z,5.60
2022-08-27T17:13:58.835Z,6.47
2022-08-27T17:16:29.777Z,6.10
2022-08-27T17:18:58.507Z,5.47
2022-08-27T17:21:29.912Z,6.33
2022-08-27T17:23:59.495Z,5.77
2022-08-27T17:26:26.756Z,5.13
2022-08-27T17:28:54.433Z,4.80
2022-08-27T17:31:28.059Z,5.03
2022-08-27T17:33:59.301Z,5.07
2022-08-27T17:36:28.659Z,5.17
2022-08-27T17:38:55.728Z,4.50
2022-08-27T17:41:36.679Z,4.47
2022-08-27T17:44:19.454Z,4.80
2022-08-27T17:46:46.577Z,5.20
2022-08-27T17:49:15.035Z,4.60
2022-08-27T17:51:42.249Z,4.63
2022-08-27T17:54:26.574Z,4.20
2022-08-27T17:56:53.645Z,4.73
2022-08-27T17:59:20.725Z,4.80
2022-08-27T18:01:47.979Z,4.40
2022-08-27T18:04:15.975Z,4.80
2022-08-27T18:06:43.023Z,4.50
2022-08-27T18:09:10.479Z,5.40
2022-08-27T18:11:39.815Z,4.53
2022-08-27T18:14:06.875Z,4.33
2022-08-27T18:16:34.595Z,4.63
2022-08-27T18:19:03.691Z,4.77
2022-08-27T18:21:34.285Z,4.70
2022-08-27T18:24:01.527Z,4.83
2022-08-27T18:26:30.305Z,4.20
2022-08-27T18:28:58.053Z,4.03
2022-08-27T18:31:30.272Z,4.70
2022-08-27T18:33:57.825Z,4.73
2022-08-27T18:36:25.883Z,4.53
2022-08-27T18:38:52.969Z,4.93
2022-08-27T18:41:21.061Z,5.07
2022-08-27T18:43:48.258Z,4.83
2022-08-27T18:46:16.118Z,4.67
2022-08-27T18:48:43.678Z,4.13
2022-08-27T18:51:13.901Z,5.10
2022-08-27T18:53:42.865Z,4.93
2022-08-27T18:56:11.636Z,4.53
2022-08-27T18:58:43.822Z,4.73
2022-08-27T19:01:14.885Z,5.43
2022-08-27T19:03:49.297Z,5.20
2022-08-27T19:06:18.500Z,6.17
2022-08-27T19:08:45.605Z,5.23
2022-08-27T19:11:13.220Z,5.00
2022-08-27T19:13:41.174Z,5.97
2022-08-27T19:16:13.854Z,5.20
2022-08-27T19:18:41.497Z,5.30
2022-08-27T19:21:08.864Z,5.73
2022-08-27T19:23:36.750Z,5.47
2022-08-27T19:26:05.130Z,5.00
2022-08-27T19:28:40.913Z,5.73
2022-08-27T19:31:08.815Z,5.93
2022-08-27T19:33:36.816Z,6.20
2022-08-27T19:36:05.745Z,6.30
2022-08-27T19:38:33.177Z,6.83
2022-08-27T19:41:01.230Z,6.43
2022-08-27T19:43:28.399Z,6.30
2022-08-27T19:45:57.316Z,7.10
2022-08-27T19:48:24.591Z,6.47
2022-08-27T19:50:51.612Z,7.40
2022-08-27T19:53:18.592Z,7.27
2022-08-27T19:55:46.145Z,6.67
2022-08-27T19:58:14.436Z,6.73
2022-08-27T20:00:42.527Z,6.50
2022-08-27T20:03:10.100Z,7.17
2022-08-27T20:05:37.885Z,7.83
2022-08-27T20:08:05.642Z,7.03
2022-08-27T20:10:36.613Z,6.90
2022-08-27T20:13:05.784Z,7.83
2022-08-27T20:15:34.169Z,8.10
2022-08-27T20:18:01.741Z,7.90
2022-08-27T20:20:29.385Z,8.63
2022-08-27T20:22:56.431Z,8.37
2022-08-27T20:25:23.968Z,8.33
2022-08-27T20:27:51.899Z,9.00
2022-08-27T20:30:23.049Z,9.37
2022-08-27T20:32:50.512Z,9.40
2022-08-27T20:35:19.194Z,9.40
2022-08-27T20:37:46.335Z,9.20
2022-08-27T20:40:21.024Z,9.83
2022-08-27T20:42:48.081Z,9.87
2022-08-27T20:45:16.106Z,10.13
2022-08-27T20:47:45.356Z,9.80
2022-08-27T20:50:14.349Z,10.20
2022-08-27T20:52:42.241Z,9.40
2022-08-27T20:55:09.984Z,9.70
2022-08-27T20:57:37.093Z,10.40
2022-08-27T21:00:21.287Z,9.87
2022-08-27T21:02:48.444Z,10.07
2022-08-27T21:05:17.618Z,10.10
2022-08-27T21:07:45.979Z,10.00
2022-08-27T21:10:13.056Z,10.77
2022-08-27T21:12:40.047Z,10.20
2022-08-27T21:15:08.420Z,11.63
2022-08-27T21:17:35.958Z,11.63
2022-08-27T21:20:06.039Z,12.47
2022-08-27T21:22:33.210Z,12.13
2022-08-27T21:25:00.283Z,11.50
2022-08-27T21:27:27.443Z,11.53
2022-08-27T21:29:54.611Z,11.97
2022-08-27T21:32:21.649Z,11.87
2022-08-27T21:34:48.762Z,11.33
2022-08-27T21:37:17.046Z,12.90
2022-08-27T21:39:44.871Z,13.23
2022-08-27T21:42:12.873Z,12.47
2022-08-27T21:44:40.191Z,13.17
2022-08-27T21:47:07.595Z,13.40
2022-08-27T21:49:35.069Z,12.90
2022-08-27T21:52:04.864Z,14.40
2022-08-27T21:54:33.796Z,13.40
2022-08-27T21:57:00.804Z,13.23
2022-08-27T21:59:27.865Z,12.27
2022-08-27T22:02:00.484Z,12.80
2022-08-27T22:04:30.765Z,12.10
2022-08-27T22:06:59.255Z,12.87
2022-08-27T22:09:27.638Z,12.37
2022-08-27T22:11:55.349Z,12.17
2022-08-27T22:14:22.395Z,12.83
2022-08-27T22:16:50.191Z,13.00
2022-08-27T22:19:17.599Z,13.27
2022-08-27T22:21:44.822Z,13.50
2022-08-27T22:24:12.248Z,13.97
2022-08-27T22:26:39.307Z,13.80
2022-08-27T22:29:07.356Z,12.80
2022-08-27T22:31:35.083Z,13.50
2022-08-27T22:34:02.769Z,12.90
2022-08-27T22:36:30.403Z,12.20
2022-08-27T22:38:59.740Z,12.70
2022-08-27T22:41:32.591Z,13.03
2022-08-27T22:44:00.120Z,13.20
2022-08-27T22:46:27.378Z,13.57
2022-08-27T22:48:54.418Z,13.50
2022-08-27T22:51:21.571Z,13.00
2022-08-27T22:53:48.567Z,13.03
2022-08-27T22:56:15.896Z,13.07
2022-08-27T22:58:45.889Z,13.90
2022-08-27T23:01:18.056Z,13.17
2022-08-27T23:03:45.100Z,13.80
2022-08-27T23:06:12.610Z,14.40
2022-08-27T23:08:40.334Z,14.10
2022-08-27T23:11:07.373Z,15.47
2022-08-27T23:13:34.422Z,13.80
2022-08-27T23:16:03.181Z,13.37
2022-08-27T23:18:30.744Z,13.53
2022-08-27T23:20:57.960Z,13.00
2022-08-27T23:23:25.813Z,15.47
2022-08-27T23:26:16.628Z,13.93
2022-08-27T23:28:44.469Z,14.50
2022-08-27T23:31:12.079Z,14.13
2022-08-27T23:33:39.462Z,13.43
2022-08-27T23:36:06.893Z,14.03
2022-08-27T23:38:34.421Z,14.50
2022-08-27T23:41:02.044Z,13.50
2022-08-27T23:43:30.204Z,14.30
2022-08-27T23:45:57.429Z,14.70
2022-08-27T23:48:24.749Z,15.23
2022-08-27T23:50:52.078Z,14.43
2022-08-27T23:53:19.248Z,16.13
2022-08-27T23:55:46.322Z,15.63
2022-08-27T23:58:13.650Z,13.53
